createdAt,value
2019-01-24T00:01:41.715Z,97920.28
2019-01-24T00:04:16.827Z,97921.94
2019-01-24T00:06:46.051Z,97929.25
2019-01-24T00:09:17.592Z,97923.88
2019-01-24T00:11:54.182Z,97925.58
2019-01-24T00:14:23.942Z,97924.26
2019-01-24T00:16:53.129Z,97927.72
2019-01-24T00:19:22.367Z,97931.90
2019-01-24T00:21:51.854Z,97931.85
2019-01-24T00:24:22.649Z,97936.34
2019-01-24T00:26:54.987Z,97936.03
2019-01-24T00:29:25.292Z,97937.88
2019-01-24T00:31:58.192Z,97937.21
2019-01-24T00:34:34.748Z,97945.63
2019-01-24T00:37:04.024Z,97952.64
2019-01-24T00:39:34.041Z,97953.00
2019-01-24T00:42:08.697Z,97956.92
2019-01-24T00:44:38.355Z,97957.28
2019-01-24T00:47:07.900Z,97965.73
2019-01-24T00:49:37.704Z,97971.12
2019-01-24T00:52:07.706Z,97971.98
2019-01-24T00:54:38.306Z,97970.98
2019-01-24T00:57:10.928Z,97977.90
2019-01-24T00:59:40.426Z,97979.05
2019-01-24T01:02:11.890Z,97980.55
2019-01-24T01:04:42.191Z,97992.34
2019-01-24T01:07:11.399Z,97994.83
2019-01-24T01:09:40.916Z,97996.97
2019-01-24T01:12:12.254Z,98001.17
2019-01-24T01:14:43.884Z,98006.80
2019-01-24T01:17:13.447Z,98005.41
2019-01-24T01:19:43.436Z,98003.23
2019-01-24T01:22:13.009Z,98004.92
2019-01-24T01:24:42.797Z,98005.19
2019-01-24T01:27:12.623Z,98015.94
2019-01-24T01:29:42.887Z,98017.86
2019-01-24T01:32:13.040Z,98017.09
2019-01-24T01:34:42.503Z,98018.35
2019-01-24T01:37:12.023Z,98022.66
2019-01-24T01:39:43.583Z,98037.30
2019-01-24T01:42:13.671Z,98031.27
2019-01-24T01:44:43.980Z,98040.11
2019-01-24T01:47:17.187Z,98042.11
2019-01-24T01:49:46.700Z,98048.03
2019-01-24T01:52:16.067Z,98049.37
2019-01-24T01:54:46.354Z,98047.85
2019-01-24T01:57:16.421Z,98052.05
2019-01-24T01:59:46.505Z,98054.10
2019-01-24T02:02:16.302Z,98055.08
2019-01-24T02:04:46.037Z,98059.44
2019-01-24T02:07:21.077Z,98055.01
2019-01-24T02:09:51.361Z,98053.08
2019-01-24T02:12:22.981Z,98055.22
2019-01-24T02:14:53.034Z,98057.00
2019-01-24T02:17:23.715Z,98060.59
2019-01-24T02:19:54.007Z,98055.75
2019-01-24T02:22:24.095Z,98061.88
2019-01-24T02:24:58.365Z,98059.66
2019-01-24T02:27:29.102Z,98061.33
2019-01-24T02:29:59.094Z,98056.84
2019-01-24T02:32:34.875Z,98057.45
2019-01-24T02:35:06.391Z,98062.34
2019-01-24T02:37:39.901Z,98063.14
2019-01-24T02:40:09.845Z,98068.27
2019-01-24T02:42:39.192Z,98078.77
2019-01-24T02:45:12.558Z,98074.61
2019-01-24T02:47:43.100Z,98079.61
2019-01-24T02:50:16.583Z,98081.06
2019-01-24T02:52:47.326Z,98080.84
2019-01-24T02:55:19.153Z,98079.08
2019-01-24T02:57:52.582Z,98085.27
2019-01-24T03:00:25.970Z,98096.56
2019-01-24T03:02:55.870Z,98094.87
2019-01-24T03:05:25.086Z,98094.66
2019-01-24T03:08:30.433Z,98097.76
2019-01-24T03:11:01.785Z,98097.56
2019-01-24T03:13:32.555Z,98092.88
2019-01-24T03:16:09.962Z,98095.06
2019-01-24T03:18:41.695Z,98097.45
2019-01-24T03:21:14.246Z,98092.69
2019-01-24T03:23:43.934Z,98097.27
2019-01-24T03:26:13.947Z,98088.56
2019-01-24T03:28:43.663Z,98099.03
2019-01-24T03:31:13.069Z,98092.05
2019-01-24T03:33:42.511Z,98096.36
2019-01-24T03:36:12.435Z,98098.88
2019-01-24T03:38:46.580Z,98101.13
2019-01-24T03:41:16.001Z,98101.38
2019-01-24T03:43:47.280Z,98104.89
2019-01-24T03:46:16.799Z,98107.63
2019-01-24T03:48:46.004Z,98106.70
2019-01-24T03:51:22.355Z,98105.82
2019-01-24T03:53:52.593Z,98107.48
2019-01-24T03:56:25.964Z,98109.29
2019-01-24T03:58:57.325Z,98101.17
2019-01-24T04:01:26.797Z,98112.92
2019-01-24T04:04:03.609Z,98107.70
2019-01-24T04:06:34.872Z,98107.52
2019-01-24T04:09:07.871Z,98112.77
2019-01-24T04:11:37.910Z,98118.48
2019-01-24T04:14:12.894Z,98114.57
2019-01-24T04:16:43.196Z,98111.11
2019-01-24T04:19:12.620Z,98119.60
2019-01-24T04:21:42.361Z,98121.55
2019-01-24T04:24:11.834Z,98125.62
2019-01-24T04:26:42.006Z,98123.48
2019-01-24T04:29:12.579Z,98119.16
2019-01-24T04:31:42.046Z,98126.72
2019-01-24T04:34:11.509Z,98128.78
2019-01-24T04:36:41.494Z,98130.04
2019-01-24T04:39:12.505Z,98133.06
2019-01-24T04:41:42.664Z,98131.98
2019-01-24T04:44:12.104Z,98133.39
2019-01-24T04:46:45.428Z,98134.32
2019-01-24T04:49:15.892Z,98131.89
2019-01-24T04:51:47.058Z,98126.64
2019-01-24T04:54:18.127Z,98135.91
2019-01-24T04:56:47.552Z,98135.79
2019-01-24T04:59:19.035Z,98137.02
2019-01-24T05:01:52.753Z,98138.56
2019-01-24T05:04:23.971Z,98141.95
2019-01-24T05:06:54.775Z,98147.78
2019-01-24T05:09:24.886Z,98149.23
2019-01-24T05:11:54.386Z,98148.59
2019-01-24T05:14:24.956Z,98147.78
2019-01-24T05:16:56.318Z,98153.44
2019-01-24T05:19:29.963Z,98155.62
2019-01-24T05:21:59.715Z,98155.94
2019-01-24T05:24:30.212Z,98155.09
2019-01-24T05:26:59.412Z,98157.71
2019-01-24T05:29:29.717Z,98160.19
2019-01-24T05:32:01.603Z,98151.63
2019-01-24T05:34:31.651Z,98154.57
2019-01-24T05:37:01.591Z,98158.93
2019-01-24T05:39:33.564Z,98163.37
2019-01-24T05:42:04.093Z,98163.37
2019-01-24T05:44:37.941Z,98166.57
2019-01-24T05:47:10.446Z,98167.46
2019-01-24T05:49:40.095Z,98176.39
2019-01-24T05:52:19.188Z,98181.72
2019-01-24T05:54:48.758Z,98182.78
2019-01-24T05:57:20.428Z,98181.56
2019-01-24T05:59:51.037Z,98183.41
2019-01-24T06:02:22.489Z,98190.72
2019-01-24T06:04:54.462Z,98193.31
2019-01-24T06:07:26.160Z,98195.45
2019-01-24T06:10:00.571Z,98208.70
2019-01-24T06:12:31.328Z,98209.08
2019-01-24T06:15:00.993Z,98216.83
2019-01-24T06:17:36.854Z,98220.41
2019-01-24T06:20:08.403Z,98224.10
2019-01-24T06:22:37.553Z,98229.76
2019-01-24T06:25:07.447Z,98223.41
2019-01-24T06:27:36.982Z,98228.72
2019-01-24T06:30:09.351Z,98227.25
2019-01-24T06:32:41.107Z,98230.23
2019-01-24T06:35:10.465Z,98236.41
2019-01-24T06:37:42.449Z,98246.30
2019-01-24T06:40:14.052Z,98248.00
2019-01-24T06:42:43.653Z,98246.30
2019-01-24T06:45:18.612Z,98255.28
2019-01-24T06:47:49.045Z,98252.31
2019-01-24T06:50:19.693Z,98248.22
2019-01-24T06:52:50.244Z,98252.98
2019-01-24T06:55:26.735Z,98247.63
2019-01-24T06:57:58.228Z,98255.97
2019-01-24T07:00:29.641Z,98251.17
2019-01-24T07:02:59.398Z,98250.94
2019-01-24T07:05:29.389Z,98255.16
2019-01-24T07:08:00.675Z,98260.59
2019-01-24T07:10:35.143Z,98262.91
2019-01-24T07:13:04.803Z,98272.59
2019-01-24T07:15:34.330Z,98280.83
2019-01-24T07:18:04.811Z,98289.13
2019-01-24T07:20:33.998Z,98292.56
2019-01-24T07:23:04.850Z,98284.73
2019-01-24T07:25:35.130Z,98289.16
2019-01-24T07:28:05.049Z,98298.55
2019-01-24T07:30:34.240Z,98288.69
2019-01-24T07:33:08.843Z,98291.27
2019-01-24T07:35:40.571Z,98293.00
2019-01-24T07:38:11.599Z,98291.20
2019-01-24T07:40:41.866Z,98289.02
2019-01-24T07:43:11.344Z,98291.67
2019-01-24T07:45:42.545Z,98293.37
2019-01-24T07:48:11.741Z,98297.48
2019-01-24T07:50:45.004Z,98301.91
2019-01-24T07:53:18.547Z,98308.87
2019-01-24T07:55:51.322Z,98312.66
2019-01-24T07:58:27.237Z,98316.63
2019-01-24T08:00:58.302Z,98319.15
2019-01-24T08:03:28.580Z,98320.56
2019-01-24T08:05:57.881Z,98326.20
2019-01-24T08:08:27.161Z,98329.14
2019-01-24T08:10:59.251Z,98333.58
2019-01-24T08:13:29.238Z,98325.92
2019-01-24T08:16:01.905Z,98327.24
2019-01-24T08:18:31.655Z,98326.70
2019-01-24T08:21:01.160Z,98329.33
2019-01-24T08:23:31.451Z,98337.92
2019-01-24T08:26:01.731Z,98339.31
2019-01-24T08:28:31.366Z,98336.29
2019-01-24T08:31:00.579Z,98339.06
2019-01-24T08:33:31.287Z,98342.47
2019-01-24T08:36:00.601Z,98338.02
2019-01-24T08:38:29.888Z,98341.36
2019-01-24T08:40:59.080Z,98347.03
2019-01-24T08:43:28.988Z,98351.26
2019-01-24T08:45:58.506Z,98352.17
2019-01-24T08:48:29.823Z,98350.81
2019-01-24T08:51:00.206Z,98353.15
2019-01-24T08:53:29.443Z,98358.73
2019-01-24T08:55:59.825Z,98361.19
2019-01-24T08:58:30.616Z,98366.88
2019-01-24T09:00:59.924Z,98369.06
2019-01-24T09:03:30.872Z,98364.30
2019-01-24T09:06:01.149Z,98370.92
2019-01-24T09:08:30.214Z,98370.19
2019-01-24T09:10:59.548Z,98371.10
2019-01-24T09:13:31.579Z,98375.08
2019-01-24T09:16:01.553Z,98377.77
2019-01-24T09:18:30.974Z,98373.97
2019-01-24T09:21:00.294Z,98378.55
2019-01-24T09:23:29.830Z,98385.32
2019-01-24T09:25:59.817Z,98386.65
2019-01-24T09:28:29.314Z,98391.00
2019-01-24T09:30:59.144Z,98403.95
2019-01-24T09:33:28.632Z,98398.79
2019-01-24T09:36:00.113Z,98401.66
2019-01-24T09:38:29.645Z,98408.84
2019-01-24T09:41:01.310Z,98406.66
2019-01-24T09:43:30.755Z,98406.05
2019-01-24T09:46:00.364Z,98411.52
2019-01-24T09:48:30.702Z,98412.55
2019-01-24T09:51:09.023Z,98417.66
2019-01-24T09:53:39.804Z,98427.19
2019-01-24T09:56:09.451Z,98426.66
2019-01-24T09:58:39.637Z,98430.75
2019-01-24T10:01:11.679Z,98430.11
2019-01-24T10:03:43.201Z,98435.36
2019-01-24T10:06:12.402Z,98439.78
2019-01-24T10:08:41.849Z,98439.75
2019-01-24T10:11:12.063Z,98444.79
2019-01-24T10:13:41.314Z,98435.05
2019-01-24T10:16:10.863Z,98445.48
2019-01-24T10:18:51.087Z,98446.37
2019-01-24T10:21:22.140Z,98440.77
2019-01-24T10:23:51.600Z,98443.56
2019-01-24T10:26:23.316Z,98442.58
2019-01-24T10:28:54.068Z,98438.41
2019-01-24T10:31:23.634Z,98439.13
2019-01-24T10:33:52.810Z,98439.64
2019-01-24T10:36:22.044Z,98435.33
2019-01-24T10:38:51.706Z,98437.64
2019-01-24T10:41:25.056Z,98438.30
2019-01-24T10:43:55.747Z,98430.72
2019-01-24T10:46:25.198Z,98427.93
2019-01-24T10:48:54.414Z,98430.48
2019-01-24T10:51:24.906Z,98435.38
2019-01-24T10:53:54.950Z,98430.32
2019-01-24T10:56:24.119Z,98429.80
2019-01-24T10:58:53.630Z,98432.98
2019-01-24T11:01:22.824Z,98433.11
2019-01-24T11:03:52.322Z,98424.56
2019-01-24T11:06:21.797Z,98430.44
2019-01-24T11:08:51.082Z,98428.86
2019-01-24T11:11:22.388Z,98420.44
2019-01-24T11:13:51.685Z,98427.00
2019-01-24T11:16:20.832Z,98429.25
2019-01-24T11:18:50.047Z,98417.36
2019-01-24T11:21:19.229Z,98424.03
2019-01-24T11:23:51.441Z,98418.11
2019-01-24T11:26:20.686Z,98412.33
2019-01-24T11:28:52.363Z,98419.16
2019-01-24T11:31:23.108Z,98421.95
2019-01-24T11:33:53.165Z,98416.86
2019-01-24T11:36:22.426Z,98418.23
2019-01-24T11:38:51.888Z,98410.91
2019-01-24T11:41:23.438Z,98410.45
2019-01-24T11:43:52.657Z,98404.47
2019-01-24T11:46:22.934Z,98404.73
2019-01-24T11:48:54.529Z,98402.59
2019-01-24T11:51:25.587Z,98404.03
2019-01-24T11:53:57.868Z,98399.69
2019-01-24T11:56:27.389Z,98407.01
2019-01-24T11:58:57.120Z,98406.12
2019-01-24T12:01:26.466Z,98405.55
2019-01-24T12:03:56.015Z,98403.98
2019-01-24T12:06:26.039Z,98404.83
2019-01-24T12:08:55.514Z,98396.38
2019-01-24T12:11:24.917Z,98396.28
2019-01-24T12:13:54.133Z,98396.81
2019-01-24T12:16:23.354Z,98395.02
2019-01-24T12:18:53.996Z,98395.89
2019-01-24T12:21:23.809Z,98400.05
2019-01-24T12:23:54.102Z,98402.17
2019-01-24T12:26:23.612Z,98410.80
2019-01-24T12:28:53.627Z,98413.14
2019-01-24T12:31:22.804Z,98403.85
2019-01-24T12:34:03.402Z,98404.49
2019-01-24T12:36:32.555Z,98405.88
2019-01-24T12:39:06.173Z,98401.91
2019-01-24T12:41:35.654Z,98394.23
2019-01-24T12:44:04.982Z,98396.14
2019-01-24T12:46:35.010Z,98394.23
2019-01-24T12:49:05.210Z,98398.04
2019-01-24T12:51:36.894Z,98397.48
2019-01-24T12:54:06.755Z,98395.74
2019-01-24T12:56:39.640Z,98398.53
2019-01-24T12:59:08.832Z,98401.93
2019-01-24T13:01:39.221Z,98398.95
2019-01-24T13:04:08.971Z,98398.01
2019-01-24T13:06:38.689Z,98401.37
2019-01-24T13:09:10.064Z,98404.78
2019-01-24T13:11:41.683Z,98408.48
2019-01-24T13:14:11.879Z,98413.55
2019-01-24T13:16:42.329Z,98415.82
2019-01-24T13:19:12.583Z,98410.36
2019-01-24T13:21:42.071Z,98413.08
2019-01-24T13:24:13.005Z,98415.39
2019-01-24T13:26:47.369Z,98408.17
2019-01-24T13:29:16.867Z,98405.44
2019-01-24T13:31:46.609Z,98407.05
2019-01-24T13:34:16.185Z,98414.09
2019-01-24T13:36:46.009Z,98414.55
2019-01-24T13:39:15.177Z,98414.36
2019-01-24T13:41:45.131Z,98416.41
2019-01-24T13:44:16.604Z,98418.61
2019-01-24T13:46:46.140Z,98428.44
2019-01-24T13:49:16.116Z,98425.38
2019-01-24T13:51:46.918Z,98430.98
2019-01-24T13:54:19.142Z,98431.58
2019-01-24T13:56:48.716Z,98435.72
2019-01-24T13:59:19.055Z,98446.72
2019-01-24T14:01:48.741Z,98452.75
2019-01-24T14:04:35.734Z,98450.66
2019-01-24T14:07:10.400Z,98446.41
2019-01-24T14:09:43.654Z,98450.88
2019-01-24T14:12:14.151Z,98453.38
2019-01-24T14:14:43.839Z,98455.75
2019-01-24T14:17:13.636Z,98461.20
2019-01-24T14:19:44.683Z,98459.83
2019-01-24T14:22:17.631Z,98454.11
2019-01-24T14:24:47.465Z,98453.12
2019-01-24T14:27:18.238Z,98457.41
2019-01-24T14:29:48.718Z,98462.95
2019-01-24T14:32:19.087Z,98465.23
2019-01-24T14:34:48.388Z,98465.19
2019-01-24T14:37:18.473Z,98463.05
2019-01-24T14:39:48.104Z,98463.36
2019-01-24T14:42:17.617Z,98461.11
2019-01-24T14:44:47.045Z,98470.02
2019-01-24T14:47:16.210Z,98463.98
2019-01-24T14:49:46.948Z,98469.16
2019-01-24T14:52:16.386Z,98477.22
2019-01-24T14:54:46.630Z,98477.47
2019-01-24T14:57:16.051Z,98483.55
2019-01-24T14:59:45.474Z,98482.86
2019-01-24T15:02:15.416Z,98485.17
2019-01-24T15:04:45.361Z,98483.59
2019-01-24T15:07:15.753Z,98489.19
2019-01-24T15:09:45.928Z,98490.80
2019-01-24T15:12:16.084Z,98490.31
2019-01-24T15:14:45.624Z,98494.24
2019-01-24T15:17:15.163Z,98496.39
2019-01-24T15:19:46.780Z,98494.73
2019-01-24T15:22:16.254Z,98491.42
2019-01-24T15:24:46.750Z,98491.98
2019-01-24T15:27:16.498Z,98497.81
2019-01-24T15:29:47.067Z,98503.29
2019-01-24T15:32:27.734Z,98506.33
2019-01-24T15:34:59.777Z,98504.14
2019-01-24T15:37:30.085Z,98511.75
2019-01-24T15:39:59.450Z,98506.33
2019-01-24T15:42:32.221Z,98512.89
2019-01-24T15:45:01.791Z,98515.08
2019-01-24T15:47:31.118Z,98522.45
2019-01-24T15:50:01.020Z,98519.16
2019-01-24T15:52:34.159Z,98522.97
2019-01-24T15:55:03.215Z,98527.59
2019-01-24T15:57:41.290Z,98527.46
2019-01-24T16:00:16.576Z,98531.64
2019-01-24T16:02:46.685Z,98526.82
2019-01-24T16:05:16.592Z,98525.16
2019-01-24T16:07:50.534Z,98526.86
2019-01-24T16:10:20.941Z,98531.97
2019-01-24T16:13:10.849Z,98545.04
2019-01-24T16:15:41.928Z,98541.34
2019-01-24T16:18:13.649Z,98534.30
2019-01-24T16:20:46.779Z,98548.92
2019-01-24T16:23:16.215Z,98544.19
2019-01-24T16:25:46.785Z,98550.96
2019-01-24T16:28:16.518Z,98550.55
2019-01-24T16:30:47.183Z,98559.30
2019-01-24T16:33:17.784Z,98562.26
2019-01-24T16:35:48.169Z,98568.22
2019-01-24T16:38:18.342Z,98572.51
2019-01-24T16:40:48.165Z,98574.66
2019-01-24T16:43:17.332Z,98581.14
2019-01-24T16:45:47.311Z,98581.25
2019-01-24T16:48:16.820Z,98585.59
2019-01-24T16:50:46.637Z,98582.63
2019-01-24T16:53:17.143Z,98589.14
2019-01-24T16:55:47.194Z,98589.63
2019-01-24T16:58:16.764Z,98596.58
2019-01-24T17:00:53.638Z,98601.44
2019-01-24T17:03:24.386Z,98603.58
2019-01-24T17:05:54.913Z,98606.20
2019-01-24T17:08:24.658Z,98602.77
2019-01-24T17:10:55.411Z,98614.80
2019-01-24T17:13:24.649Z,98615.24
2019-01-24T17:15:53.868Z,98619.71
2019-01-24T17:18:24.480Z,98615.48
2019-01-24T17:20:54.064Z,98620.05
2019-01-24T17:23:26.720Z,98616.57
2019-01-24T17:25:55.926Z,98620.42
2019-01-24T17:28:29.094Z,98619.94
2019-01-24T17:30:59.064Z,98624.72
2019-01-24T17:33:37.291Z,98621.65
2019-01-24T17:36:08.104Z,98617.35
2019-01-24T17:38:37.971Z,98618.31
2019-01-24T17:41:11.140Z,98620.53
2019-01-24T17:43:40.800Z,98624.83
2019-01-24T17:46:13.694Z,98630.48
2019-01-24T17:48:43.757Z,98626.49
2019-01-24T17:51:13.304Z,98630.97
2019-01-24T17:53:42.570Z,98635.70
2019-01-24T17:56:12.067Z,98636.80
2019-01-24T17:58:41.602Z,98643.68
2019-01-24T18:01:12.131Z,98643.52
2019-01-24T18:03:42.677Z,98644.36
2019-01-24T18:06:15.033Z,98650.53
2019-01-24T18:08:51.782Z,98649.17
2019-01-24T18:11:27.707Z,98648.38
2019-01-24T18:13:57.357Z,98650.94
2019-01-24T18:16:29.838Z,98653.91
2019-01-24T18:19:00.040Z,98650.09
2019-01-24T18:21:32.281Z,98648.38
2019-01-24T18:24:02.066Z,98660.69
2019-01-24T18:26:31.290Z,98655.60
2019-01-24T18:29:00.735Z,98660.27
2019-01-24T18:31:31.961Z,98660.72
2019-01-24T18:34:01.912Z,98661.88
2019-01-24T18:36:33.102Z,98663.62
2019-01-24T18:39:05.781Z,98663.23
2019-01-24T18:41:35.245Z,98667.91
2019-01-24T18:44:04.517Z,98673.91
2019-01-24T18:46:37.013Z,98674.33
2019-01-24T18:49:07.495Z,98676.16
2019-01-24T18:51:38.045Z,98676.51
2019-01-24T18:54:07.948Z,98683.02
2019-01-24T18:56:37.828Z,98682.06
2019-01-24T18:59:08.154Z,98690.31
2019-01-24T19:01:40.962Z,98698.97
2019-01-24T19:04:10.461Z,98695.94
2019-01-24T19:06:40.519Z,98696.86
2019-01-24T19:09:10.112Z,98697.73
2019-01-24T19:11:39.658Z,98696.38
2019-01-24T19:14:09.247Z,98703.36
2019-01-24T19:16:39.708Z,98707.28
2019-01-24T19:19:09.940Z,98700.04
2019-01-24T19:21:39.493Z,98701.62
2019-01-24T19:24:09.832Z,98702.60
2019-01-24T19:26:39.312Z,98700.58
2019-01-24T19:29:08.482Z,98707.55
2019-01-24T19:31:38.760Z,98702.02
2019-01-24T19:34:08.280Z,98707.96
2019-01-24T19:36:37.501Z,98710.38
2019-01-24T19:39:09.331Z,98722.47
2019-01-24T19:41:38.819Z,98723.77
2019-01-24T19:44:15.431Z,98729.63
2019-01-24T19:46:39.532Z,98726.39
2019-01-24T19:49:08.716Z,98724.20
2019-01-24T19:51:38.683Z,98726.91
2019-01-24T19:54:09.559Z,98729.53
2019-01-24T19:56:42.425Z,98742.10
2019-01-24T19:59:12.904Z,98740.31
2019-01-24T20:01:44.659Z,98744.45
2019-01-24T20:04:14.221Z,98752.81
2019-01-24T20:06:44.511Z,98747.99
2019-01-24T20:09:15.681Z,98756.70
2019-01-24T20:11:49.403Z,98755.29
2019-01-24T20:14:19.345Z,98757.55
2019-01-24T20:16:53.640Z,98760.05
2019-01-24T20:19:23.985Z,98764.89
2019-01-24T20:21:53.594Z,98763.94
2019-01-24T20:24:24.102Z,98766.92
2019-01-24T20:26:54.696Z,98773.45
2019-01-24T20:29:25.034Z,98774.28
2019-01-24T20:31:54.444Z,98778.58
2019-01-24T20:34:25.593Z,98780.42
2019-01-24T20:36:56.022Z,98774.74
2019-01-24T20:39:25.661Z,98777.86
2019-01-24T20:41:55.437Z,98778.25
2019-01-24T20:44:26.164Z,98775.33
2019-01-24T20:46:55.940Z,98773.56
2019-01-24T20:49:25.182Z,98770.95
2019-01-24T20:51:54.601Z,98779.89
2019-01-24T20:54:23.827Z,98773.95
2019-01-24T20:56:53.665Z,98775.59
2019-01-24T20:59:23.673Z,98777.34
2019-01-24T21:01:54.293Z,98775.27
2019-01-24T21:04:24.554Z,98776.42
2019-01-24T21:06:57.098Z,98783.05
2019-01-24T21:09:29.203Z,98777.42
2019-01-24T21:11:58.728Z,98776.92
2019-01-24T21:14:27.973Z,98773.95
2019-01-24T21:16:57.427Z,98772.02
2019-01-24T21:19:27.072Z,98775.33
2019-01-24T21:21:56.985Z,98776.56
2019-01-24T21:24:27.652Z,98779.52
2019-01-24T21:26:58.069Z,98779.92
2019-01-24T21:29:27.703Z,98779.08
2019-01-24T21:31:57.187Z,98774.42
2019-01-24T21:34:26.394Z,98771.24
2019-01-24T21:36:58.851Z,98772.95
2019-01-24T21:39:29.756Z,98774.14
2019-01-24T21:41:59.277Z,98774.95
2019-01-24T21:44:33.651Z,98775.41
2019-01-24T21:47:03.974Z,98774.58
2019-01-24T21:49:33.450Z,98772.83
2019-01-24T21:52:02.919Z,98772.69
2019-01-24T21:54:31.934Z,98776.27
2019-01-24T21:57:01.480Z,98765.58
2019-01-24T21:59:35.465Z,98764.61
2019-01-24T22:02:05.165Z,98761.97
2019-01-24T22:04:38.582Z,98763.81
2019-01-24T22:07:08.492Z,98768.55
2019-01-24T22:09:37.698Z,98769.41
2019-01-24T22:12:07.672Z,98769.48
2019-01-24T22:14:36.834Z,98772.02
2019-01-24T22:17:10.159Z,98778.99
2019-01-24T22:19:41.553Z,98775.55
2019-01-24T22:22:11.105Z,98776.42
2019-01-24T22:24:42.184Z,98775.49
2019-01-24T22:27:11.947Z,98777.72
2019-01-24T22:29:41.379Z,98778.02
2019-01-24T22:32:12.132Z,98778.14
2019-01-24T22:34:45.423Z,98775.13
2019-01-24T22:37:17.212Z,98778.94
2019-01-24T22:39:46.407Z,98772.88
2019-01-24T22:42:16.480Z,98778.85
2019-01-24T22:44:47.069Z,98775.85
2019-01-24T22:47:17.857Z,98779.69
2019-01-24T22:49:52.387Z,98790.02
2019-01-24T22:52:21.629Z,98788.25
2019-01-24T22:54:51.949Z,98793.48
2019-01-24T22:57:21.569Z,98793.62
2019-01-24T22:59:52.289Z,98790.22
2019-01-24T23:02:25.158Z,98795.95
2019-01-24T23:04:54.410Z,98795.41
2019-01-24T23:07:25.940Z,98795.48
2019-01-24T23:09:55.639Z,98799.31
2019-01-24T23:12:25.586Z,98797.99
2019-01-24T23:14:55.038Z,98805.04
2019-01-24T23:17:25.464Z,98807.20
2019-01-24T23:19:55.374Z,98808.06
2019-01-24T23:22:25.550Z,98811.87
2019-01-24T23:24:57.465Z,98802.57
2019-01-24T23:27:28.722Z,98806.45
2019-01-24T23:30:01.210Z,98806.90
2019-01-24T23:32:31.831Z,98803.55
2019-01-24T23:35:24.729Z,98807.77
2019-01-24T23:37:55.004Z,98810.78
2019-01-24T23:40:25.227Z,98805.58
2019-01-24T23:42:56.297Z,98808.63
2019-01-24T23:45:31.992Z,98804.28
2019-01-24T23:48:01.950Z,98809.09
2019-01-24T23:50:35.597Z,98813.34
2019-01-24T23:53:05.504Z,98814.09
2019-01-24T23:55:35.560Z,98805.91
2019-01-24T23:58:06.029Z,98808.97
